sensor_id;sensor_type;location;lat;lon;timestamp;pressure;altitude;pressure_sealevel;temperature;humidity
33913;BME280;20200;52.084;5.224;2023-04-22T00:02:58;153859.0;;;20.22;40.37
33913;BME280;20200;52.084;5.224;2023-04-22T00:04:34;153830.0;;;20.11;40.61
33913;BME280;20200;52.084;5.224;2023-04-22T00:06:10;153907.0;;;20.41;39.96
33913;BME280;20200;52.084;5.224;2023-04-22T00:07:48;153959.0;;;20.62;39.51
33913;BME280;20200;52.084;5.224;2023-04-22T00:11:00;153865.0;;;20.25;40.14
33913;BME280;20200;52.084;5.224;2023-04-22T00:12:36;153849.0;;;20.18;40.21
33913;BME280;20200;52.084;5.224;2023-04-22T00:14:12;153882.0;;;20.31;39.96
33913;BME280;20200;52.084;5.224;2023-04-22T00:17:24;153954.0;;;20.6;39.42
33913;BME280;20200;52.084;5.224;2023-04-22T00:19:03;153974.0;;;20.68;39.31
33913;BME280;20200;52.084;5.224;2023-04-22T00:20:40;153822.0;;;20.07;40.17
33913;BME280;20200;52.084;5.224;2023-04-22T00:23:52;153910.0;;;20.43;39.37
33913;BME280;20200;52.084;5.224;2023-04-22T00:25:28;153875.0;;;20.28;39.6
33913;BME280;20200;52.084;5.224;2023-04-22T00:27:04;153834.0;;;20.12;39.86
33913;BME280;20200;52.084;5.224;2023-04-22T00:28:40;153879.0;;;20.3;39.53
33913;BME280;20200;52.084;5.224;2023-04-22T00:31:53;153859.0;;;20.22;39.85
33913;BME280;20200;52.084;5.224;2023-04-22T00:33:29;153839.0;;;20.14;39.92
33913;BME280;20200;52.084;5.224;2023-04-22T00:35:06;153807.0;;;20.02;40.06
33913;BME280;20200;52.084;5.224;2023-04-22T00:38:18;153780.0;;;19.91;40.31
33913;BME280;20200;52.084;5.224;2023-04-22T00:39:54;153826.0;;;20.09;39.83
33913;BME280;20200;52.084;5.224;2023-04-22T00:41:31;153827.0;;;20.09;39.75
33913;BME280;20200;52.084;5.224;2023-04-22T00:44:45;153755.0;;;19.81;40.29
33913;BME280;20200;52.084;5.224;2023-04-22T00:46:22;153711.0;;;19.63;40.39
33913;BME280;20200;52.084;5.224;2023-04-22T00:47:58;153687.0;;;19.54;40.57
33913;BME280;20200;52.084;5.224;2023-04-22T00:49:35;153624.0;;;19.29;41.18
33913;BME280;20200;52.084;5.224;2023-04-22T00:52:47;153708.0;;;19.62;40.47
33913;BME280;20200;52.084;5.224;2023-04-22T00:54:24;153753.0;;;19.8;40.14
33913;BME280;20200;52.084;5.224;2023-04-22T00:56:00;153795.0;;;19.97;39.71
33913;BME280;20200;52.084;5.224;2023-04-22T00:59:14;153828.0;;;20.11;39.49
33913;BME280;20200;52.084;5.224;2023-04-22T01:00:50;153787.0;;;19.95;39.61
33913;BME280;20200;52.084;5.224;2023-04-22T01:02:27;153681.0;;;19.52;40.51
33913;BME280;20200;52.084;5.224;2023-04-22T01:05:40;153639.0;;;19.36;40.83
33913;BME280;20200;52.084;5.224;2023-04-22T01:07:16;153696.0;;;19.59;40.31
33913;BME280;20200;52.084;5.224;2023-04-22T01:08:52;153704.0;;;19.61;40.24
33913;BME280;20200;52.084;5.224;2023-04-22T01:10:29;153702.0;;;19.61;40.04
33913;BME280;20200;52.084;5.224;2023-04-22T01:13:41;153622.0;;;19.28;40.81
33913;BME280;20200;52.084;5.224;2023-04-22T01:15:17;153586.0;;;19.14;41.22
33913;BME280;20200;52.084;5.224;2023-04-22T01:16:54;153576.0;;;19.11;41.24
33913;BME280;20200;52.084;5.224;2023-04-22T01:20:08;153658.0;;;19.43;40.4
33913;BME280;20200;52.084;5.224;2023-04-22T01:21:46;153729.0;;;19.7;39.93
33913;BME280;20200;52.084;5.224;2023-04-22T01:23:25;153665.0;;;19.45;40.33
33913;BME280;20200;52.084;5.224;2023-04-22T01:26:37;153701.0;;;19.61;39.89
33913;BME280;20200;52.084;5.224;2023-04-22T01:28:14;153696.0;;;19.57;40.03
33913;BME280;20200;52.084;5.224;2023-04-22T01:29:51;153679.0;;;19.52;40.1
33913;BME280;20200;52.084;5.224;2023-04-22T01:31:28;153680.0;;;19.52;40.14
33913;BME280;20200;52.084;5.224;2023-04-22T01:34:42;153620.0;;;19.27;40.67
33913;BME280;20200;52.084;5.224;2023-04-22T01:36:18;153610.0;;;19.23;40.96
33913;BME280;20200;52.084;5.224;2023-04-22T01:37:54;153549.0;;;19.0;41.48
33913;BME280;20200;52.084;5.224;2023-04-22T01:41:06;153499.0;;;18.79;41.91
33913;BME280;20200;52.084;5.224;2023-04-22T01:42:42;153558.0;;;19.03;41.49
33913;BME280;20200;52.084;5.224;2023-04-22T01:44:18;153547.0;;;18.98;41.55
33913;BME280;20200;52.084;5.224;2023-04-22T01:47:30;153634.0;;;19.34;40.9
33913;BME280;20200;52.084;5.224;2023-04-22T01:49:07;153542.0;;;18.96;41.52
33913;BME280;20200;52.084;5.224;2023-04-22T01:50:43;153567.0;;;19.06;41.39
33913;BME280;20200;52.084;5.224;2023-04-22T01:52:19;153558.0;;;19.03;41.15
33913;BME280;20200;52.084;5.224;2023-04-22T01:55:31;153645.0;;;19.37;40.21
33913;BME280;20200;52.084;5.224;2023-04-22T01:57:09;153644.0;;;19.37;40.4
33913;BME280;20200;52.084;5.224;2023-04-22T01:58:48;153428.0;;;18.52;42.39
33913;BME280;20200;52.084;5.224;2023-04-22T02:02:01;153572.0;;;19.09;40.89
33913;BME280;20200;52.084;5.224;2023-04-22T02:03:37;153578.0;;;19.11;40.71
33913;BME280;20200;52.084;5.224;2023-04-22T02:05:14;153504.0;;;18.81;41.41
33913;BME280;20200;52.084;5.224;2023-04-22T02:08:26;153570.0;;;19.07;40.75
33913;BME280;20200;52.084;5.224;2023-04-22T02:10:02;153564.0;;;19.05;40.46
33913;BME280;20200;52.084;5.224;2023-04-22T02:11:39;153503.0;;;18.81;40.79
33913;BME280;20200;52.084;5.224;2023-04-22T02:13:15;153563.0;;;19.05;40.37
33913;BME280;20200;52.084;5.224;2023-04-22T02:16:28;153539.0;;;18.95;40.44
33913;BME280;20200;52.084;5.224;2023-04-22T02:18:04;153524.0;;;18.89;40.89
33913;BME280;20200;52.084;5.224;2023-04-22T02:19:41;153586.0;;;19.14;40.26
33913;BME280;20200;52.084;5.224;2023-04-22T02:22:53;153545.0;;;18.97;40.43
33913;BME280;20200;52.084;5.224;2023-04-22T02:24:29;153563.0;;;19.05;40.24
33913;BME280;20200;52.084;5.224;2023-04-22T02:26:06;153542.0;;;18.96;40.17
33913;BME280;20200;52.084;5.224;2023-04-22T02:29:19;153653.0;;;19.41;39.49
33913;BME280;20200;52.084;5.224;2023-04-22T02:30:55;153578.0;;;19.11;39.83
33913;BME280;20200;52.084;5.224;2023-04-22T02:32:31;153598.0;;;19.2;39.67
33913;BME280;20200;52.084;5.224;2023-04-22T02:35:43;153548.0;;;19.0;40.04
33913;BME280;20200;52.084;5.224;2023-04-22T02:37:20;153595.0;;;19.18;39.68
33913;BME280;20200;52.084;5.224;2023-04-22T02:38:56;153515.0;;;18.86;40.39
33913;BME280;20200;52.084;5.224;2023-04-22T02:40:32;153515.0;;;18.86;40.26
33913;BME280;20200;52.084;5.224;2023-04-22T02:43:44;153496.0;;;18.78;40.46
33913;BME280;20200;52.084;5.224;2023-04-22T02:45:20;153550.0;;;19.0;39.99
33913;BME280;20200;52.084;5.224;2023-04-22T02:46:56;153431.0;;;18.52;40.89
33913;BME280;20200;52.084;5.224;2023-04-22T02:50:09;153481.0;;;18.72;40.42
33913;BME280;20200;52.084;5.224;2023-04-22T02:51:45;153490.0;;;18.77;40.53
33913;BME280;20200;52.084;5.224;2023-04-22T02:53:22;153578.0;;;19.11;39.78
33913;BME280;20200;52.084;5.224;2023-04-22T02:56:34;153607.0;;;19.22;39.6
33913;BME280;20200;52.084;5.224;2023-04-22T02:58:10;153586.0;;;19.14;39.71
33913;BME280;20200;52.084;5.224;2023-04-22T02:59:46;153649.0;;;19.39;39.33
33913;BME280;20200;52.084;5.224;2023-04-22T03:01:22;153558.0;;;19.03;39.86
33913;BME280;20200;52.084;5.224;2023-04-22T03:04:34;153529.0;;;18.91;40.18
33913;BME280;20200;52.084;5.224;2023-04-22T03:06:11;153552.0;;;19.02;39.81
33913;BME280;20200;52.084;5.224;2023-04-22T03:07:47;153550.0;;;19.0;39.74
33913;BME280;20200;52.084;5.224;2023-04-22T03:10:59;153546.0;;;18.98;39.81
33913;BME280;20200;52.084;5.224;2023-04-22T03:12:35;153646.0;;;19.38;39.06
33913;BME280;20200;52.084;5.224;2023-04-22T03:14:11;153673.0;;;19.48;38.74
33913;BME280;20200;52.084;5.224;2023-04-22T03:17:23;153653.0;;;19.41;38.99
33913;BME280;20200;52.084;5.224;2023-04-22T03:19:00;153688.0;;;19.54;38.64
33913;BME280;20200;52.084;5.224;2023-04-22T03:20:37;153614.0;;;19.25;39.24
33913;BME280;20200;52.084;5.224;2023-04-22T03:23:48;153640.0;;;19.36;39.28
33913;BME280;20200;52.084;5.224;2023-04-22T03:25:24;153656.0;;;19.41;39.11
33913;BME280;20200;52.084;5.224;2023-04-22T03:27:00;153554.0;;;19.02;39.86
33913;BME280;20200;52.084;5.224;2023-04-22T03:28:36;153491.0;;;18.77;40.33
33913;BME280;20200;52.084;5.224;2023-04-22T03:31:49;153559.0;;;19.03;39.97
33913;BME280;20200;52.084;5.224;2023-04-22T03:33:25;153542.0;;;18.96;40.1
33913;BME280;20200;52.084;5.224;2023-04-22T03:35:01;153524.0;;;18.89;40.4
33913;BME280;20200;52.084;5.224;2023-04-22T03:38:13;153622.0;;;19.28;39.68
33913;BME280;20200;52.084;5.224;2023-04-22T03:39:49;153545.0;;;18.97;40.19
33913;BME280;20200;52.084;5.224;2023-04-22T03:41:26;153527.0;;;18.91;40.36
33913;BME280;20200;52.084;5.224;2023-04-22T03:44:38;153575.0;;;19.09;40.17
33913;BME280;20200;52.084;5.224;2023-04-22T03:46:14;153549.0;;;19.0;40.21
33913;BME280;20200;52.084;5.224;2023-04-22T03:47:51;153583.0;;;19.13;39.93
33913;BME280;20200;52.084;5.224;2023-04-22T03:51:04;153550.0;;;19.0;40.32
33913;BME280;20200;52.084;5.224;2023-04-22T03:52:39;153551.0;;;19.0;40.37
33913;BME280;20200;52.084;5.224;2023-04-22T03:54:17;153473.0;;;18.7;40.96
33913;BME280;20200;52.084;5.224;2023-04-22T03:55:54;153570.0;;;19.07;40.19
33913;BME280;20200;52.084;5.224;2023-04-22T03:59:06;153471.0;;;18.68;40.97
33913;BME280;20200;52.084;5.224;2023-04-22T04:00:42;153475.0;;;18.7;40.96
33913;BME280;20200;52.084;5.224;2023-04-22T04:02:18;153455.0;;;18.62;40.94
33913;BME280;20200;52.084;5.224;2023-04-22T04:07:07;153574.0;;;19.09;40.14
33913;BME280;20200;52.084;5.224;2023-04-22T04:08:43;153486.0;;;18.75;40.96
33913;BME280;20200;52.084;5.224;2023-04-22T04:11:55;153611.0;;;19.25;40.18
33913;BME280;20200;52.084;5.224;2023-04-22T04:13:31;153690.0;;;19.55;39.4
33913;BME280;20200;52.084;5.224;2023-04-22T04:15:09;153697.0;;;19.59;39.31
33913;BME280;20200;52.084;5.224;2023-04-22T04:16:46;153558.0;;;19.03;40.37
33913;BME280;20200;52.084;5.224;2023-04-22T04:19:58;153645.0;;;19.37;39.75
33913;BME280;20200;52.084;5.224;2023-04-22T04:21:34;153599.0;;;19.2;40.03
33913;BME280;20200;52.084;5.224;2023-04-22T04:23:10;153589.0;;;19.16;40.17
33913;BME280;20200;52.084;5.224;2023-04-22T04:26:22;153529.0;;;18.91;40.64
33913;BME280;20200;52.084;5.224;2023-04-22T04:27:59;153549.0;;;19.0;40.54
33913;BME280;20200;52.084;5.224;2023-04-22T04:29:35;153636.0;;;19.34;39.96
33913;BME280;20200;52.084;5.224;2023-04-22T04:32:47;153630.0;;;19.31;40.03
33913;BME280;20200;52.084;5.224;2023-04-22T04:34:23;153501.0;;;18.8;40.97
33913;BME280;20200;52.084;5.224;2023-04-22T04:35:59;153585.0;;;19.13;40.42
33913;BME280;20200;52.084;5.224;2023-04-22T04:37:35;153513.0;;;18.86;41.02
33913;BME280;20200;52.084;5.224;2023-04-22T04:40:49;153426.0;;;18.5;41.59
33913;BME280;20200;52.084;5.224;2023-04-22T04:42:26;153405.0;;;18.43;41.81
33913;BME280;20200;52.084;5.224;2023-04-22T04:44:02;153524.0;;;18.89;40.96
33913;BME280;20200;52.084;5.224;2023-04-22T04:47:15;153500.0;;;18.8;41.15
33913;BME280;20200;52.084;5.224;2023-04-22T04:48:51;153441.0;;;18.56;41.62
33913;BME280;20200;52.084;5.224;2023-04-22T04:50:27;153465.0;;;18.66;41.48
33913;BME280;20200;52.084;5.224;2023-04-22T04:53:40;153527.0;;;18.91;40.86
33913;BME280;20200;52.084;5.224;2023-04-22T04:55:16;153595.0;;;19.18;40.46
33913;BME280;20200;52.084;5.224;2023-04-22T04:56:52;153513.0;;;18.86;41.07
33913;BME280;20200;52.084;5.224;2023-04-22T05:00:05;153538.0;;;18.95;40.94
33913;BME280;20200;52.084;5.224;2023-04-22T05:01:42;153553.0;;;19.02;40.93
33913;BME280;20200;52.084;5.224;2023-04-22T05:03:19;153549.0;;;19.0;40.92
33913;BME280;20200;52.084;5.224;2023-04-22T05:04:56;153498.0;;;18.79;41.33
33913;BME280;20200;52.084;5.224;2023-04-22T05:08:08;153504.0;;;18.81;41.38
33913;BME280;20200;52.084;5.224;2023-04-22T05:09:44;153518.0;;;18.87;41.32
33913;BME280;20200;52.084;5.224;2023-04-22T05:11:20;153513.0;;;18.86;41.41
33913;BME280;20200;52.084;5.224;2023-04-22T05:14:34;153501.0;;;18.8;41.57
33913;BME280;20200;52.084;5.224;2023-04-22T05:16:10;153474.0;;;18.7;41.81
33913;BME280;20200;52.084;5.224;2023-04-22T05:17:46;153499.0;;;18.79;41.72
33913;BME280;20200;52.084;5.224;2023-04-22T05:20:58;153559.0;;;19.03;41.3
33913;BME280;20200;52.084;5.224;2023-04-22T05:22:34;153595.0;;;19.18;41.08
33913;BME280;20200;52.084;5.224;2023-04-22T05:24:10;153614.0;;;19.25;40.87
33913;BME280;20200;52.084;5.224;2023-04-22T05:25:46;153596.0;;;19.18;41.16
33913;BME280;20200;52.084;5.224;2023-04-22T05:28:59;153637.0;;;19.34;40.93
33913;BME280;20200;52.084;5.224;2023-04-22T05:30:35;153574.0;;;19.09;41.4
33913;BME280;20200;52.084;5.224;2023-04-22T05:32:11;153559.0;;;19.03;41.62
33913;BME280;20200;52.084;5.224;2023-04-22T05:35:23;153519.0;;;18.87;42.09
33913;BME280;20200;52.084;5.224;2023-04-22T05:37:01;153572.0;;;19.09;41.8
33913;BME280;20200;52.084;5.224;2023-04-22T05:38:37;153610.0;;;19.23;41.61
33913;BME280;20200;52.084;5.224;2023-04-22T05:41:50;153614.0;;;19.25;41.55
33913;BME280;20200;52.084;5.224;2023-04-22T05:43:26;153570.0;;;19.09;42.06
33913;BME280;20200;52.084;5.224;2023-04-22T05:45:02;153558.0;;;19.03;42.25
33913;BME280;20200;52.084;5.224;2023-04-22T05:46:39;153558.0;;;19.03;42.38
33913;BME280;20200;52.084;5.224;2023-04-22T05:49:51;153583.0;;;19.12;42.24
33913;BME280;20200;52.084;5.224;2023-04-22T05:51:27;153629.0;;;19.31;41.95
33913;BME280;20200;52.084;5.224;2023-04-22T05:53:04;153595.0;;;19.18;42.35
33913;BME280;20200;52.084;5.224;2023-04-22T05:56:16;153570.0;;;19.09;42.61
33913;BME280;20200;52.084;5.224;2023-04-22T05:57:52;153620.0;;;19.27;42.35
33913;BME280;20200;52.084;5.224;2023-04-22T05:59:28;153692.0;;;19.56;41.93
33913;BME280;20200;52.084;5.224;2023-04-22T06:02:40;153658.0;;;19.43;42.32
33913;BME280;20200;52.084;5.224;2023-04-22T06:04:17;153670.0;;;19.47;42.3
33913;BME280;20200;52.084;5.224;2023-04-22T06:05:54;153703.0;;;19.61;42.1
33913;BME280;20200;52.084;5.224;2023-04-22T06:09:06;153707.0;;;19.62;42.08
33913;BME280;20200;52.084;5.224;2023-04-22T06:10:42;153755.0;;;19.81;41.92
33913;BME280;20200;52.084;5.224;2023-04-22T06:12:18;153796.0;;;19.97;41.8
33913;BME280;20200;52.084;5.224;2023-04-22T06:13:54;153810.0;;;20.03;41.83
33913;BME280;20200;52.084;5.224;2023-04-22T06:17:09;153822.0;;;20.07;41.88
33913;BME280;20200;52.084;5.224;2023-04-22T06:18:45;153927.0;;;20.49;41.21
33913;BME280;20200;52.084;5.224;2023-04-22T06:20:21;153954.0;;;20.6;40.97
33913;BME280;20200;52.084;5.224;2023-04-22T06:23:33;153977.0;;;20.69;40.92
33913;BME280;20200;52.084;5.224;2023-04-22T06:25:09;153924.0;;;20.48;41.44
33913;BME280;20200;52.084;5.224;2023-04-22T06:26:46;154032.0;;;20.91;40.78
33913;BME280;20200;52.084;5.224;2023-04-22T06:29:58;153994.0;;;20.76;41.22
33913;BME280;20200;52.084;5.224;2023-04-22T06:31:34;154084.0;;;21.11;40.85
33913;BME280;20200;52.084;5.224;2023-04-22T06:33:10;154004.0;;;20.79;41.5
33913;BME280;20200;52.084;5.224;2023-04-22T06:34:46;154058.0;;;21.01;41.14
33913;BME280;20200;52.084;5.224;2023-04-22T06:37:58;154131.0;;;21.3;40.81
33913;BME280;20200;52.084;5.224;2023-04-22T06:39:35;154107.0;;;21.2;41.09
33913;BME280;20200;52.084;5.224;2023-04-22T06:41:12;154030.0;;;20.9;41.67
33913;BME280;20200;52.084;5.224;2023-04-22T06:44:25;154151.0;;;21.38;40.97
33913;BME280;20200;52.084;5.224;2023-04-22T06:46:01;154125.0;;;21.27;41.19
33913;BME280;20200;52.084;5.224;2023-04-22T06:47:37;154127.0;;;21.28;41.34
33913;BME280;20200;52.084;5.224;2023-04-22T06:50:49;154082.0;;;21.1;41.6
33913;BME280;20200;52.084;5.224;2023-04-22T06:52:26;154057.0;;;21.0;42.07
33913;BME280;20200;52.084;5.224;2023-04-22T06:54:02;154135.0;;;21.31;41.47
33913;BME280;20200;52.084;5.224;2023-04-22T06:57:14;154161.0;;;21.41;41.49
33913;BME280;20200;52.084;5.224;2023-04-22T06:58:50;154167.0;;;21.44;41.22
33913;BME280;20200;52.084;5.224;2023-04-22T07:00:27;154238.0;;;21.72;40.93
33913;BME280;20200;52.084;5.224;2023-04-22T07:02:02;154261.0;;;21.81;40.78
33913;BME280;20200;52.084;5.224;2023-04-22T07:05:15;154319.0;;;22.04;40.43
33913;BME280;20200;52.084;5.224;2023-04-22T07:06:51;154339.0;;;22.12;40.26
33913;BME280;20200;52.084;5.224;2023-04-22T07:08:27;154348.0;;;22.16;40.25
33913;BME280;20200;52.084;5.224;2023-04-22T07:11:40;154348.0;;;22.16;40.47
33913;BME280;20200;52.084;5.224;2023-04-22T07:13:16;154378.0;;;22.27;40.21
33913;BME280;20200;52.084;5.224;2023-04-22T07:14:53;154356.0;;;22.19;40.56
33913;BME280;20200;52.084;5.224;2023-04-22T07:18:05;154364.0;;;22.22;40.36
33913;BME280;20200;52.084;5.224;2023-04-22T07:19:41;154167.0;;;21.44;41.76
33913;BME280;20200;52.084;5.224;2023-04-22T07:21:17;154129.0;;;21.29;42.01
33913;BME280;20200;52.084;5.224;2023-04-22T07:22:53;154260.0;;;21.81;41.55
33913;BME280;20200;52.084;5.224;2023-04-22T07:26:05;154235.0;;;21.71;41.77
33913;BME280;20200;52.084;5.224;2023-04-22T07:27:42;154304.0;;;21.98;41.37
33913;BME280;20200;52.084;5.224;2023-04-22T07:29:17;154142.0;;;21.34;42.18
33913;BME280;20200;52.084;5.224;2023-04-22T07:32:30;154237.0;;;21.71;41.57
33913;BME280;20200;52.084;5.224;2023-04-22T07:34:06;154288.0;;;21.92;41.76
33913;BME280;20200;52.084;5.224;2023-04-22T07:35:42;154278.0;;;21.88;41.74
33913;BME280;20200;52.084;5.224;2023-04-22T07:38:56;154267.0;;;21.84;41.68
33913;BME280;20200;52.084;5.224;2023-04-22T07:40:32;154294.0;;;21.94;41.74
33913;BME280;20200;52.084;5.224;2023-04-22T07:42:09;154314.0;;;22.02;41.55
33913;BME280;20200;52.084;5.224;2023-04-22T07:45:21;154183.0;;;21.5;42.15
33913;BME280;20200;52.084;5.224;2023-04-22T07:46:57;154253.0;;;21.78;42.22
33913;BME280;20200;52.084;5.224;2023-04-22T07:48:33;154274.0;;;21.86;42.53
33913;BME280;20200;52.084;5.224;2023-04-22T07:50:10;154426.0;;;22.46;41.88
33913;BME280;20200;52.084;5.224;2023-04-22T07:53:22;154372.0;;;22.25;42.16
33913;BME280;20200;52.084;5.224;2023-04-22T07:54:59;154107.0;;;21.2;43.17
33913;BME280;20200;52.084;5.224;2023-04-22T07:56:35;154156.0;;;21.4;43.13
33913;BME280;20200;52.084;5.224;2023-04-22T07:59:47;153994.0;;;20.75;43.76
33913;BME280;20200;52.084;5.224;2023-04-22T08:01:23;154229.0;;;21.69;42.76
33913;BME280;20200;52.084;5.224;2023-04-22T08:02:59;154224.0;;;21.66;42.56
33913;BME280;20200;52.084;5.224;2023-04-22T08:06:11;154251.0;;;21.77;42.34
33913;BME280;20200;52.084;5.224;2023-04-22T08:07:47;154329.0;;;22.08;41.49
33913;BME280;20200;52.084;5.224;2023-04-22T08:09:24;154540.0;;;22.92;40.67
33913;BME280;20200;52.084;5.224;2023-04-22T08:11:00;154367.0;;;22.23;41.22
33913;BME280;20200;52.084;5.224;2023-04-22T08:14:13;154316.0;;;22.03;42.05
33913;BME280;20200;52.084;5.224;2023-04-22T08:15:49;154560.0;;;22.99;40.78
33913;BME280;20200;52.084;5.224;2023-04-22T08:17:25;154424.0;;;22.46;41.57
33913;BME280;20200;52.084;5.224;2023-04-22T08:20:38;154345.0;;;22.14;41.18
33913;BME280;20200;52.084;5.224;2023-04-22T08:22:14;154434.0;;;22.5;41.05
33913;BME280;20200;52.084;5.224;2023-04-22T08:23:51;154634.0;;;23.29;39.87
33913;BME280;20200;52.084;5.224;2023-04-22T08:27:03;154598.0;;;23.14;40.12
33913;BME280;20200;52.084;5.224;2023-04-22T08:28:39;154834.0;;;24.08;39.14
33913;BME280;20200;52.084;5.224;2023-04-22T08:30:16;154902.0;;;24.35;38.33
33913;BME280;20200;52.084;5.224;2023-04-22T08:33:28;154825.0;;;24.04;38.99
33913;BME280;20200;52.084;5.224;2023-04-22T08:35:04;154890.0;;;24.3;38.21
33913;BME280;20200;52.084;5.224;2023-04-22T08:36:40;154778.0;;;23.86;38.57
33913;BME280;20200;52.084;5.224;2023-04-22T08:38:17;154910.0;;;24.38;37.58
33913;BME280;20200;52.084;5.224;2023-04-22T08:41:33;154862.0;;;24.19;38.21
33913;BME280;20200;52.084;5.224;2023-04-22T08:43:11;154855.0;;;24.16;38.57
33913;BME280;20200;52.084;5.224;2023-04-22T08:44:47;155040.0;;;24.89;37.01
33913;BME280;20200;52.084;5.224;2023-04-22T08:48:01;154866.0;;;24.2;37.81
33913;BME280;20200;52.084;5.224;2023-04-22T08:49:38;154824.0;;;24.04;38.24
33913;BME280;20200;52.084;5.224;2023-04-22T08:51:15;154829.0;;;24.06;38.37
33913;BME280;20200;52.084;5.224;2023-04-22T08:52:52;154919.0;;;24.41;37.72
33913;BME280;20200;52.084;5.224;2023-04-22T08:56:05;154950.0;;;24.54;37.42
33913;BME280;20200;52.084;5.224;2023-04-22T08:57:43;154937.0;;;24.49;37.69
33913;BME280;20200;52.084;5.224;2023-04-22T08:59:21;154990.0;;;24.69;37.18
33913;BME280;20200;52.084;5.224;2023-04-22T09:02:36;154997.0;;;24.72;37.28
33913;BME280;20200;52.084;5.224;2023-04-22T09:04:13;154944.0;;;24.51;37.68
33913;BME280;20200;52.084;5.224;2023-04-22T09:05:50;155149.0;;;25.32;36.21
33913;BME280;20200;52.084;5.224;2023-04-22T09:09:06;155116.0;;;25.19;36.26
33913;BME280;20200;52.084;5.224;2023-04-22T09:10:42;155220.0;;;25.6;35.81
33913;BME280;20200;52.084;5.224;2023-04-22T09:12:18;155106.0;;;25.15;35.78
33913;BME280;20200;52.084;5.224;2023-04-22T09:13:54;155218.0;;;25.59;36.1
33913;BME280;20200;52.084;5.224;2023-04-22T09:17:06;155430.0;;;26.43;35.29
33913;BME280;20200;52.084;5.224;2023-04-22T09:18:43;155548.0;;;26.9;33.58
33913;BME280;20200;52.084;5.224;2023-04-22T09:20:24;155525.0;;;26.81;33.81
33913;BME280;20200;52.084;5.224;2023-04-22T09:23:45;155352.0;;;26.12;33.39
33913;BME280;20200;52.084;5.224;2023-04-22T09:25:26;155603.0;;;27.11;33.17
33913;BME280;20200;52.084;5.224;2023-04-22T09:27:02;155607.0;;;27.13;31.98
33913;BME280;20200;52.084;5.224;2023-04-22T09:28:48;155470.0;;;26.59;33.14
33913;BME280;20200;52.084;5.224;2023-04-22T09:32:08;155474.0;;;26.61;33.06
33913;BME280;20200;52.084;5.224;2023-04-22T09:33:47;155276.0;;;25.82;34.19
33913;BME280;20200;52.084;5.224;2023-04-22T09:35:27;155534.0;;;26.84;33.57
33913;BME280;20200;52.084;5.224;2023-04-22T09:37:04;155644.0;;;27.27;32.86
33913;BME280;20200;52.084;5.224;2023-04-22T09:40:27;155736.0;;;27.64;32.21
33913;BME280;20200;52.084;5.224;2023-04-22T09:42:06;155759.0;;;27.73;31.94
33913;BME280;20200;52.084;5.224;2023-04-22T09:43:44;155877.0;;;28.19;30.6
33913;BME280;20200;52.084;5.224;2023-04-22T09:45:25;155794.0;;;27.87;31.49
33913;BME280;20200;52.084;5.224;2023-04-22T09:48:41;155849.0;;;28.08;30.69
33913;BME280;20200;52.084;5.224;2023-04-22T09:50:19;155929.0;;;28.4;30.68
33913;BME280;20200;52.084;5.224;2023-04-22T09:51:56;155929.0;;;28.39;30.83
33913;BME280;20200;52.084;5.224;2023-04-22T09:53:35;155990.0;;;28.64;30.81
33913;BME280;20200;52.084;5.224;2023-04-22T09:56:49;155913.0;;;28.34;31.37
33913;BME280;20200;52.084;5.224;2023-04-22T09:58:26;155977.0;;;28.59;31.05
33913;BME280;20200;52.084;5.224;2023-04-22T10:00:03;156022.0;;;28.76;30.57
33913;BME280;20200;52.084;5.224;2023-04-22T10:03:17;155944.0;;;28.46;31.18
33913;BME280;20200;52.084;5.224;2023-04-22T10:04:54;155814.0;;;27.95;32.35
33913;BME280;20200;52.084;5.224;2023-04-22T10:06:31;155869.0;;;28.16;31.24
33913;BME280;20200;52.084;5.224;2023-04-22T10:09:45;155767.0;;;27.76;31.14
33913;BME280;20200;52.084;5.224;2023-04-22T10:11:22;155838.0;;;28.04;32.28
33913;BME280;20200;52.084;5.224;2023-04-22T10:12:58;155812.0;;;27.94;31.71
33913;BME280;20200;52.084;5.224;2023-04-22T10:14:35;155739.0;;;27.65;32.35
33913;BME280;20200;52.084;5.224;2023-04-22T10:17:51;155813.0;;;27.94;31.82
33913;BME280;20200;52.084;5.224;2023-04-22T10:19:27;155885.0;;;28.23;31.56
33913;BME280;20200;52.084;5.224;2023-04-22T10:21:04;155887.0;;;28.23;31.55
33913;BME280;20200;52.084;5.224;2023-04-22T10:24:19;156026.0;;;28.78;32.1
33913;BME280;20200;52.084;5.224;2023-04-22T10:25:56;155774.0;;;27.79;31.36
33913;BME280;20200;52.084;5.224;2023-04-22T10:27:32;155763.0;;;27.74;31.48
33913;BME280;20200;52.084;5.224;2023-04-22T10:29:12;155754.0;;;27.71;32.58
33913;BME280;20200;52.084;5.224;2023-04-22T10:32:26;155956.0;;;28.5;32.01
33913;BME280;20200;52.084;5.224;2023-04-22T10:34:11;155941.0;;;28.45;31.92
33913;BME280;20200;52.084;5.224;2023-04-22T10:36:05;155887.0;;;28.23;32.53
33913;BME280;20200;52.084;5.224;2023-04-22T10:37:45;155823.0;;;27.98;32.39
33913;BME280;20200;52.084;5.224;2023-04-22T10:40:59;155909.0;;;28.32;32.19
33913;BME280;20200;52.084;5.224;2023-04-22T10:42:39;155939.0;;;28.44;31.45
33913;BME280;20200;52.084;5.224;2023-04-22T10:44:15;155836.0;;;28.03;32.01
33913;BME280;20200;52.084;5.224;2023-04-22T10:45:51;155660.0;;;27.34;33.28
33913;BME280;20200;52.084;5.224;2023-04-22T10:49:06;155656.0;;;27.32;33.35
33913;BME280;20200;52.084;5.224;2023-04-22T10:50:43;155667.0;;;27.37;33.43
33913;BME280;20200;52.084;5.224;2023-04-22T10:52:27;155652.0;;;27.31;33.42
33913;BME280;20200;52.084;5.224;2023-04-22T10:55:48;155694.0;;;27.47;33.12
33913;BME280;20200;52.084;5.224;2023-04-22T10:57:35;155601.0;;;27.11;33.43
33913;BME280;20200;52.084;5.224;2023-04-22T10:59:15;155690.0;;;27.46;33.26
33913;BME280;20200;52.084;5.224;2023-04-22T11:00:52;155583.0;;;27.03;33.96
33913;BME280;20200;52.084;5.224;2023-04-22T11:04:18;155474.0;;;26.6;34.56
33913;BME280;20200;52.084;5.224;2023-04-22T11:06:14;155587.0;;;27.05;34.21
33913;BME280;20200;52.084;5.224;2023-04-22T11:07:53;155434.0;;;26.45;34.61
33913;BME280;20200;52.084;5.224;2023-04-22T11:09:30;155487.0;;;26.66;34.56